F/V L'arche D'allian — FHGO — position and weather

sailwx.info

Track history (hours):
 
Tides and Currents Weather Stations Pressure Air Temp Water Temp Dewpoint Dewpoint Depression Visibility Wind Speed Wind Dir Waves Ship Positions

F/V L'arche D'allian

Last reported at 2018-Jun-19 15:58 UTC. Time now 2018-Jun-20 05:48 UTC.
Position N 47°59' W 004°42'.

Length 20 m.

Type: Fishing. MMSI: 227311000.

Date/timePositionNaut miles runAvg speedWind from/ knotsBaromVisibWave heightAir tempDewpointWater temp
2018-Jun-19 15:58N 47°59' W 004°42'710.2
2018-Jun-19 15:17N 47°58' W 004°52'510.3
2018-Jun-19 14:50N 47°57' W 004°59'10 9.0
2018-Jun-19 13:43N 47°54' W 005°13'11 1.3
2018-Jun-19 05:34N 47°58' W 004°58'210.5
2018-Jun-19 05:25N 47°58' W 004°56'410.4
2018-Jun-19 05:00N 47°58' W 004°50'510.4
2018-Jun-19 04:30N 47°59' W 004°42'610.5
2018-Jun-19 03:58N 47°60' W 004°33'  
2018-Jun-15 13:49N 47°60' W 004°33'510.6
2018-Jun-15 13:20N 47°58' W 004°40'610.2
2018-Jun-15 12:48N 47°56' W 004°48'4 9.7
2018-Jun-15 12:21N 47°55' W 004°54'3 9.6
2018-Jun-15 12:00N 47°54' W 004°59'6 1.1
2018-Jun-15 06:33N 47°54' W 005°08'2 1.2
2018-Jun-15 04:53N 47°54' W 005°11'12 7.1
2018-Jun-15 03:16N 47°57' W 004°54'2 9.3
2018-Jun-15 03:00N 47°57' W 004°50'5 9.7
2018-Jun-15 02:30N 47°58' W 004°43'7 0.2
2018-Jun-13 10:48N 47°56' W 004°53'9 0.4
2018-Jun-12 11:38N 47°59' W 004°40'5 9.1
2018-Jun-12 11:07N 47°58' W 004°47'1 9.5
2018-Jun-12 10:58N 47°58' W 004°49'15 4.6
2018-Jun-12 07:43N 47°54' W 005°11'1 0.7
2018-Jun-12 06:53N 47°53' W 005°10'1 1.0
2018-Jun-12 05:38N 47°52' W 005°10'2 1.9
2018-Jun-12 04:43N 47°54' W 005°10'8 6.6
2018-Jun-12 03:27N 47°56' W 004°58'5 9.8
2018-Jun-12 02:59N 47°57' W 004°51'6 9.7
2018-Jun-12 02:21N 47°58' W 004°42'8 0.4
2018-Jun-11 03:10N 47°56' W 004°54'210.1
2018-Jun-11 02:58N 47°57' W 004°52'510.0
2018-Jun-11 02:29N 47°58' W 004°44'7 9.9
2018-Jun-11 01:44N 47°60' W 004°34'26 1.3
2018-Jun-10 05:58N 47°55' W 005°11'1 0.5
2018-Jun-10 04:38N 47°56' W 005°11'8 9.2
2018-Jun-10 03:45N 47°57' W 004°59'310.1
2018-Jun-10 03:28N 47°57' W 004°55'510.1
2018-Jun-10 03:00N 47°58' W 004°48'5 9.9
2018-Jun-10 02:30N 47°59' W 004°41'5 9.9
2018-Jun-10 01:58N 47°60' W 004°33'  
Track history (hours):
 
Tides and Currents Weather Stations Pressure Air Temp Water Temp Dewpoint Dewpoint Depression Visibility Wind Speed Wind Dir Waves Ship Positions

F/V L'arche D'allian

Last reported at 2018-Jun-19 15:58 UTC. Time now 2018-Jun-20 05:48 UTC.
Position N 47°59' W 004°42'.

Length 20 m.

Type: Fishing. MMSI: 227311000.

Date/timePositionNaut miles runAvg speedWind from/ knotsBaromVisibWave heightAir tempDewpointWater temp
2018-Jun-19 15:58N 47°59' W 004°42'710.2
2018-Jun-19 15:17N 47°58' W 004°52'510.3
2018-Jun-19 14:50N 47°57' W 004°59'10 9.0
2018-Jun-19 13:43N 47°54' W 005°13'11 1.3
2018-Jun-19 05:34N 47°58' W 004°58'210.5
2018-Jun-19 05:25N 47°58' W 004°56'410.4
2018-Jun-19 05:00N 47°58' W 004°50'510.4
2018-Jun-19 04:30N 47°59' W 004°42'610.5
2018-Jun-19 03:58N 47°60' W 004°33'  
2018-Jun-15 13:49N 47°60' W 004°33'510.6
2018-Jun-15 13:20N 47°58' W 004°40'610.2
2018-Jun-15 12:48N 47°56' W 004°48'4 9.7
2018-Jun-15 12:21N 47°55' W 004°54'3 9.6
2018-Jun-15 12:00N 47°54' W 004°59'6 1.1
2018-Jun-15 06:33N 47°54' W 005°08'2 1.2
2018-Jun-15 04:53N 47°54' W 005°11'12 7.1
2018-Jun-15 03:16N 47°57' W 004°54'2 9.3
2018-Jun-15 03:00N 47°57' W 004°50'5 9.7
2018-Jun-15 02:30N 47°58' W 004°43'7 0.2
2018-Jun-13 10:48N 47°56' W 004°53'9 0.4
2018-Jun-12 11:38N 47°59' W 004°40'5 9.1
2018-Jun-12 11:07N 47°58' W 004°47'1 9.5
2018-Jun-12 10:58N 47°58' W 004°49'15 4.6
2018-Jun-12 07:43N 47°54' W 005°11'1 0.7
2018-Jun-12 06:53N 47°53' W 005°10'1 1.0
2018-Jun-12 05:38N 47°52' W 005°10'2 1.9
2018-Jun-12 04:43N 47°54' W 005°10'8 6.6
2018-Jun-12 03:27N 47°56' W 004°58'5 9.8
2018-Jun-12 02:59N 47°57' W 004°51'6 9.7
2018-Jun-12 02:21N 47°58' W 004°42'8 0.4
2018-Jun-11 03:10N 47°56' W 004°54'210.1
2018-Jun-11 02:58N 47°57' W 004°52'510.0
2018-Jun-11 02:29N 47°58' W 004°44'7 9.9
2018-Jun-11 01:44N 47°60' W 004°34'26 1.3
2018-Jun-10 05:58N 47°55' W 005°11'1 0.5
2018-Jun-10 04:38N 47°56' W 005°11'8 9.2
2018-Jun-10 03:45N 47°57' W 004°59'310.1
2018-Jun-10 03:28N 47°57' W 004°55'510.1
2018-Jun-10 03:00N 47°58' W 004°48'5 9.9
2018-Jun-10 02:30N 47°59' W 004°41'5 9.9
2018-Jun-10 01:58N 47°60' W 004°33'  

Dump ship's entire track history